sensor_id;sensor_type;location;lat;lon;timestamp;temperature;humidity
4727;DHT22;2377;51.734;8.950;2023-01-15T00:00:02;9.60;99.90
4727;DHT22;2377;51.734;8.950;2023-01-15T00:02:31;9.50;99.90
4727;DHT22;2377;51.734;8.950;2023-01-15T00:04:58;9.50;99.90
4727;DHT22;2377;51.734;8.950;2023-01-15T00:07:27;9.50;99.90
4727;DHT22;2377;51.734;8.950;2023-01-15T00:09:55;9.50;99.90
4727;DHT22;2377;51.734;8.950;2023-01-15T00:12:21;9.40;99.90
4727;DHT22;2377;51.734;8.950;2023-01-15T00:14:48;9.30;99.90
4727;DHT22;2377;51.734;8.950;2023-01-15T00:17:15;9.30;99.90
4727;DHT22;2377;51.734;8.950;2023-01-15T00:19:45;9.30;99.90
4727;DHT22;2377;51.734;8.950;2023-01-15T00:22:12;9.30;99.90
4727;DHT22;2377;51.734;8.950;2023-01-15T00:24:39;9.30;99.90
4727;DHT22;2377;51.734;8.950;2023-01-15T00:27:32;9.10;99.90
4727;DHT22;2377;51.734;8.950;2023-01-15T00:30:10;9.10;99.90
4727;DHT22;2377;51.734;8.950;2023-01-15T00:32:40;9.10;99.90
4727;DHT22;2377;51.734;8.950;2023-01-15T00:35:12;9.10;85.30
4727;DHT22;2377;51.734;8.950;2023-01-15T00:37:42;9.10;88.10
4727;DHT22;2377;51.734;8.950;2023-01-15T00:40:09;9.10;96.50
4727;DHT22;2377;51.734;8.950;2023-01-15T00:42:37;9.00;95.10
4727;DHT22;2377;51.734;8.950;2023-01-15T00:45:05;9.00;99.90
4727;DHT22;2377;51.734;8.950;2023-01-15T00:47:35;9.00;65.30
4727;DHT22;2377;51.734;8.950;2023-01-15T00:50:03;8.90;66.20
4727;DHT22;2377;51.734;8.950;2023-01-15T00:52:32;8.40;66.60
4727;DHT22;2377;51.734;8.950;2023-01-15T00:55:00;8.20;54.00
4727;DHT22;2377;51.734;8.950;2023-01-15T00:57:28;8.00;75.70
4727;DHT22;2377;51.734;8.950;2023-01-15T00:59:55;7.80;72.30
4727;DHT22;2377;51.734;8.950;2023-01-15T01:02:22;7.70;28.50
4727;DHT22;2377;51.734;8.950;2023-01-15T01:04:54;7.70;45.50
4727;DHT22;2377;51.734;8.950;2023-01-15T01:07:20;7.50;99.90
4727;DHT22;2377;51.734;8.950;2023-01-15T01:09:49;7.30;99.90
4727;DHT22;2377;51.734;8.950;2023-01-15T01:12:16;7.20;99.90
4727;DHT22;2377;51.734;8.950;2023-01-15T01:14:53;7.30;80.00
4727;DHT22;2377;51.734;8.950;2023-01-15T01:17:37;7.30;88.70
4727;DHT22;2377;51.734;8.950;2023-01-15T01:20:50;7.20;88.10
4727;DHT22;2377;51.734;8.950;2023-01-15T01:23:04;7.00;13.60
4727;DHT22;2377;51.734;8.950;2023-01-15T01:25:36;7.00;44.70
4727;DHT22;2377;51.734;8.950;2023-01-15T01:28:03;6.80;39.00
4727;DHT22;2377;51.734;8.950;2023-01-15T01:30:32;6.80;1.00
4727;DHT22;2377;51.734;8.950;2023-01-15T01:32:59;6.80;5.30
4727;DHT22;2377;51.734;8.950;2023-01-15T01:35:39;6.60;27.40
4727;DHT22;2377;51.734;8.950;2023-01-15T01:38:34;6.50;27.40
4727;DHT22;2377;51.734;8.950;2023-01-15T01:41:03;6.40;23.10
4727;DHT22;2377;51.734;8.950;2023-01-15T01:43:50;6.30;36.20
4727;DHT22;2377;51.734;8.950;2023-01-15T01:46:24;6.20;39.60
4727;DHT22;2377;51.734;8.950;2023-01-15T01:48:55;6.10;1.00
4727;DHT22;2377;51.734;8.950;2023-01-15T01:51:45;6.20;13.80
4727;DHT22;2377;51.734;8.950;2023-01-15T01:54:36;6.10;41.30
4727;DHT22;2377;51.734;8.950;2023-01-15T01:57:12;5.90;38.80
4727;DHT22;2377;51.734;8.950;2023-01-15T01:59:41;5.90;43.30
4727;DHT22;2377;51.734;8.950;2023-01-15T02:02:21;5.80;60.50
4727;DHT22;2377;51.734;8.950;2023-01-15T02:05:06;5.70;55.60
4727;DHT22;2377;51.734;8.950;2023-01-15T02:07:35;5.60;39.60
4727;DHT22;2377;51.734;8.950;2023-01-15T02:10:16;5.60;33.80
4727;DHT22;2377;51.734;8.950;2023-01-15T02:12:54;5.60;18.20
4727;DHT22;2377;51.734;8.950;2023-01-15T02:15:34;5.70;27.00
4727;DHT22;2377;51.734;8.950;2023-01-15T02:18:09;5.60;20.60
4727;DHT22;2377;51.734;8.950;2023-01-15T02:20:47;5.70;21.50
4727;DHT22;2377;51.734;8.950;2023-01-15T02:23:30;5.60;8.90
4727;DHT22;2377;51.734;8.950;2023-01-15T02:26:19;5.60;7.40
4727;DHT22;2377;51.734;8.950;2023-01-15T02:29:08;5.60;9.30
4727;DHT22;2377;51.734;8.950;2023-01-15T02:31:42;5.50;19.00
4727;DHT22;2377;51.734;8.950;2023-01-15T02:34:19;5.40;11.70
4727;DHT22;2377;51.734;8.950;2023-01-15T02:36:53;5.50;17.80
4727;DHT22;2377;51.734;8.950;2023-01-15T02:39:29;5.50;39.20
4727;DHT22;2377;51.734;8.950;2023-01-15T02:42:01;5.50;31.90
4727;DHT22;2377;51.734;8.950;2023-01-15T02:44:36;5.40;23.90
4727;DHT22;2377;51.734;8.950;2023-01-15T02:47:07;5.40;32.80
4727;DHT22;2377;51.734;8.950;2023-01-15T02:49:38;5.50;59.70
4727;DHT22;2377;51.734;8.950;2023-01-15T02:52:13;5.40;55.90
4727;DHT22;2377;51.734;8.950;2023-01-15T02:54:49;5.40;71.90
4727;DHT22;2377;51.734;8.950;2023-01-15T02:57:20;5.40;56.20
4727;DHT22;2377;51.734;8.950;2023-01-15T02:59:54;5.40;38.20
4727;DHT22;2377;51.734;8.950;2023-01-15T03:02:28;5.40;51.40
4727;DHT22;2377;51.734;8.950;2023-01-15T03:05:02;5.40;49.00
4727;DHT22;2377;51.734;8.950;2023-01-15T03:07:36;5.40;45.40
4727;DHT22;2377;51.734;8.950;2023-01-15T03:10:09;5.40;46.50
4727;DHT22;2377;51.734;8.950;2023-01-15T03:12:44;5.40;28.60
4727;DHT22;2377;51.734;8.950;2023-01-15T03:15:39;5.40;27.00
4727;DHT22;2377;51.734;8.950;2023-01-15T03:18:39;5.40;19.70
4727;DHT22;2377;51.734;8.950;2023-01-15T03:21:13;5.40;15.30
4727;DHT22;2377;51.734;8.950;2023-01-15T03:23:48;5.40;19.20
4727;DHT22;2377;51.734;8.950;2023-01-15T03:26:18;5.40;16.60
4727;DHT22;2377;51.734;8.950;2023-01-15T03:28:46;5.40;1.00
4727;DHT22;2377;51.734;8.950;2023-01-15T03:31:16;5.50;2.40
4727;DHT22;2377;51.734;8.950;2023-01-15T03:33:43;5.40;1.00
4727;DHT22;2377;51.734;8.950;2023-01-15T03:36:13;5.50;1.00
4727;DHT22;2377;51.734;8.950;2023-01-15T03:38:40;5.40;1.00
4727;DHT22;2377;51.734;8.950;2023-01-15T03:41:14;5.50;1.00
4727;DHT22;2377;51.734;8.950;2023-01-15T03:44:01;5.50;1.00
4727;DHT22;2377;51.734;8.950;2023-01-15T03:46:59;5.50;1.00
4727;DHT22;2377;51.734;8.950;2023-01-15T03:49:45;5.50;1.00
4727;DHT22;2377;51.734;8.950;2023-01-15T03:52:32;5.50;1.00
4727;DHT22;2377;51.734;8.950;2023-01-15T03:55:23;5.50;1.00
4727;DHT22;2377;51.734;8.950;2023-01-15T03:58:01;5.50;1.00
4727;DHT22;2377;51.734;8.950;2023-01-15T04:00:35;5.50;1.00
4727;DHT22;2377;51.734;8.950;2023-01-15T04:03:10;5.50;1.00
4727;DHT22;2377;51.734;8.950;2023-01-15T04:05:42;5.50;1.00
4727;DHT22;2377;51.734;8.950;2023-01-15T04:08:11;5.40;1.00
4727;DHT22;2377;51.734;8.950;2023-01-15T04:10:50;5.50;1.00
4727;DHT22;2377;51.734;8.950;2023-01-15T04:13:21;5.50;1.00
4727;DHT22;2377;51.734;8.950;2023-01-15T04:15:49;5.60;1.00
4727;DHT22;2377;51.734;8.950;2023-01-15T04:18:18;5.50;1.00
4727;DHT22;2377;51.734;8.950;2023-01-15T04:20:45;5.60;1.00
4727;DHT22;2377;51.734;8.950;2023-01-15T04:23:13;5.60;1.00
4727;DHT22;2377;51.734;8.950;2023-01-15T04:25:41;5.50;1.00
4727;DHT22;2377;51.734;8.950;2023-01-15T04:28:09;5.50;1.00
4727;DHT22;2377;51.734;8.950;2023-01-15T04:30:38;5.50;1.00
4727;DHT22;2377;51.734;8.950;2023-01-15T04:33:13;5.60;1.00
4727;DHT22;2377;51.734;8.950;2023-01-15T04:35:42;5.50;1.00
4727;DHT22;2377;51.734;8.950;2023-01-15T04:38:11;5.50;1.00
4727;DHT22;2377;51.734;8.950;2023-01-15T04:40:38;5.50;1.00
4727;DHT22;2377;51.734;8.950;2023-01-15T04:43:34;5.60;1.00
4727;DHT22;2377;51.734;8.950;2023-01-15T04:46:20;5.60;1.00
4727;DHT22;2377;51.734;8.950;2023-01-15T04:48:47;5.60;1.00
4727;DHT22;2377;51.734;8.950;2023-01-15T04:51:16;5.60;1.00
4727;DHT22;2377;51.734;8.950;2023-01-15T04:53:43;5.60;1.00
4727;DHT22;2377;51.734;8.950;2023-01-15T04:56:10;5.60;1.00
4727;DHT22;2377;51.734;8.950;2023-01-15T04:58:37;5.60;1.00
4727;DHT22;2377;51.734;8.950;2023-01-15T05:01:09;5.60;1.00
4727;DHT22;2377;51.734;8.950;2023-01-15T05:03:43;5.60;1.00
4727;DHT22;2377;51.734;8.950;2023-01-15T05:06:13;5.60;1.00
4727;DHT22;2377;51.734;8.950;2023-01-15T05:08:43;5.60;1.00
4727;DHT22;2377;51.734;8.950;2023-01-15T05:11:10;5.50;1.00
4727;DHT22;2377;51.734;8.950;2023-01-15T05:13:37;5.50;1.00
4727;DHT22;2377;51.734;8.950;2023-01-15T05:16:07;5.40;1.00
4727;DHT22;2377;51.734;8.950;2023-01-15T05:18:35;5.50;1.00
4727;DHT22;2377;51.734;8.950;2023-01-15T05:21:02;5.50;1.00
4727;DHT22;2377;51.734;8.950;2023-01-15T05:23:31;5.60;1.00
4727;DHT22;2377;51.734;8.950;2023-01-15T05:26:02;5.60;1.00
4727;DHT22;2377;51.734;8.950;2023-01-15T05:28:30;5.50;1.00
4727;DHT22;2377;51.734;8.950;2023-01-15T05:30:57;5.60;1.00
4727;DHT22;2377;51.734;8.950;2023-01-15T05:33:24;5.60;1.00
4727;DHT22;2377;51.734;8.950;2023-01-15T05:35:51;5.60;1.00
4727;DHT22;2377;51.734;8.950;2023-01-15T05:38:18;5.50;1.00
4727;DHT22;2377;51.734;8.950;2023-01-15T05:40:47;5.50;1.00
4727;DHT22;2377;51.734;8.950;2023-01-15T05:43:14;5.60;1.00
4727;DHT22;2377;51.734;8.950;2023-01-15T05:45:41;5.60;1.00
4727;DHT22;2377;51.734;8.950;2023-01-15T05:48:08;5.60;1.00
4727;DHT22;2377;51.734;8.950;2023-01-15T05:50:38;5.60;1.00
4727;DHT22;2377;51.734;8.950;2023-01-15T05:53:05;5.60;1.00
4727;DHT22;2377;51.734;8.950;2023-01-15T05:55:32;5.70;1.00
4727;DHT22;2377;51.734;8.950;2023-01-15T05:58:01;5.60;1.00
4727;DHT22;2377;51.734;8.950;2023-01-15T06:00:28;5.60;1.00
4727;DHT22;2377;51.734;8.950;2023-01-15T06:02:54;5.60;1.00
4727;DHT22;2377;51.734;8.950;2023-01-15T06:05:21;5.70;1.00
4727;DHT22;2377;51.734;8.950;2023-01-15T06:07:49;5.70;1.00
4727;DHT22;2377;51.734;8.950;2023-01-15T06:10:17;5.60;1.00
4727;DHT22;2377;51.734;8.950;2023-01-15T06:12:44;5.80;1.00
4727;DHT22;2377;51.734;8.950;2023-01-15T06:15:13;5.60;1.00
4727;DHT22;2377;51.734;8.950;2023-01-15T06:17:40;5.60;1.00
4727;DHT22;2377;51.734;8.950;2023-01-15T06:20:08;5.70;1.00
4727;DHT22;2377;51.734;8.950;2023-01-15T06:22:36;5.60;1.00
4727;DHT22;2377;51.734;8.950;2023-01-15T06:25:04;5.60;1.00
4727;DHT22;2377;51.734;8.950;2023-01-15T06:27:32;5.60;1.00
4727;DHT22;2377;51.734;8.950;2023-01-15T06:29:59;5.60;1.00
4727;DHT22;2377;51.734;8.950;2023-01-15T06:32:27;5.60;1.00
4727;DHT22;2377;51.734;8.950;2023-01-15T06:34:54;5.60;1.00
4727;DHT22;2377;51.734;8.950;2023-01-15T06:37:21;5.60;1.00
4727;DHT22;2377;51.734;8.950;2023-01-15T06:39:48;5.60;1.00
4727;DHT22;2377;51.734;8.950;2023-01-15T06:42:15;5.60;1.00
4727;DHT22;2377;51.734;8.950;2023-01-15T06:44:59;5.60;1.00
4727;DHT22;2377;51.734;8.950;2023-01-15T06:47:46;5.60;1.00
4727;DHT22;2377;51.734;8.950;2023-01-15T06:50:13;5.60;1.00
4727;DHT22;2377;51.734;8.950;2023-01-15T06:52:41;5.60;1.00
4727;DHT22;2377;51.734;8.950;2023-01-15T06:55:08;5.60;1.00
4727;DHT22;2377;51.734;8.950;2023-01-15T06:57:37;5.60;1.00
4727;DHT22;2377;51.734;8.950;2023-01-15T07:00:06;5.60;1.00
4727;DHT22;2377;51.734;8.950;2023-01-15T07:02:34;5.60;1.00
4727;DHT22;2377;51.734;8.950;2023-01-15T07:05:02;5.50;1.00
4727;DHT22;2377;51.734;8.950;2023-01-15T07:07:30;5.50;1.00
4727;DHT22;2377;51.734;8.950;2023-01-15T07:09:57;5.50;1.00
4727;DHT22;2377;51.734;8.950;2023-01-15T07:12:23;5.50;1.00
4727;DHT22;2377;51.734;8.950;2023-01-15T07:14:51;5.60;1.00
4727;DHT22;2377;51.734;8.950;2023-01-15T07:17:18;5.50;1.00
4727;DHT22;2377;51.734;8.950;2023-01-15T07:19:45;5.50;1.00
4727;DHT22;2377;51.734;8.950;2023-01-15T07:22:14;5.50;1.00
4727;DHT22;2377;51.734;8.950;2023-01-15T07:24:41;5.50;1.00
4727;DHT22;2377;51.734;8.950;2023-01-15T07:27:08;5.50;1.00
4727;DHT22;2377;51.734;8.950;2023-01-15T07:29:35;5.50;1.00
4727;DHT22;2377;51.734;8.950;2023-01-15T07:32:02;5.60;1.00
4727;DHT22;2377;51.734;8.950;2023-01-15T07:34:29;5.50;1.00
4727;DHT22;2377;51.734;8.950;2023-01-15T07:36:56;5.50;1.00
4727;DHT22;2377;51.734;8.950;2023-01-15T07:39:24;5.50;1.00
4727;DHT22;2377;51.734;8.950;2023-01-15T07:41:52;5.50;1.00
4727;DHT22;2377;51.734;8.950;2023-01-15T07:44:37;5.50;1.00
4727;DHT22;2377;51.734;8.950;2023-01-15T07:47:23;5.50;1.00
4727;DHT22;2377;51.734;8.950;2023-01-15T07:50:10;5.50;1.00
4727;DHT22;2377;51.734;8.950;2023-01-15T07:52:38;5.50;1.00
4727;DHT22;2377;51.734;8.950;2023-01-15T07:55:08;5.50;1.00
4727;DHT22;2377;51.734;8.950;2023-01-15T07:57:37;5.50;1.00
4727;DHT22;2377;51.734;8.950;2023-01-15T08:00:06;5.50;1.00
4727;DHT22;2377;51.734;8.950;2023-01-15T08:02:36;5.50;1.00
4727;DHT22;2377;51.734;8.950;2023-01-15T08:05:03;5.40;1.00
4727;DHT22;2377;51.734;8.950;2023-01-15T08:07:35;5.40;1.00
4727;DHT22;2377;51.734;8.950;2023-01-15T08:10:04;5.40;1.00
4727;DHT22;2377;51.734;8.950;2023-01-15T08:12:32;5.40;1.00
4727;DHT22;2377;51.734;8.950;2023-01-15T08:15:17;5.30;1.00
4727;DHT22;2377;51.734;8.950;2023-01-15T08:17:45;5.30;1.00
4727;DHT22;2377;51.734;8.950;2023-01-15T08:20:15;5.30;1.00
4727;DHT22;2377;51.734;8.950;2023-01-15T08:22:44;5.30;1.00
4727;DHT22;2377;51.734;8.950;2023-01-15T08:25:12;5.40;1.00
4727;DHT22;2377;51.734;8.950;2023-01-15T08:27:42;5.40;1.00
4727;DHT22;2377;51.734;8.950;2023-01-15T08:30:12;5.30;1.00
4727;DHT22;2377;51.734;8.950;2023-01-15T08:32:42;5.40;1.00
4727;DHT22;2377;51.734;8.950;2023-01-15T08:35:09;5.40;1.00
4727;DHT22;2377;51.734;8.950;2023-01-15T08:37:37;5.40;1.00
4727;DHT22;2377;51.734;8.950;2023-01-15T08:40:05;5.50;1.00
4727;DHT22;2377;51.734;8.950;2023-01-15T08:42:33;5.50;1.00
4727;DHT22;2377;51.734;8.950;2023-01-15T08:45:02;5.50;1.00
4727;DHT22;2377;51.734;8.950;2023-01-15T08:47:29;5.50;1.00
4727;DHT22;2377;51.734;8.950;2023-01-15T08:49:57;5.50;1.00
4727;DHT22;2377;51.734;8.950;2023-01-15T08:52:24;5.50;1.00
4727;DHT22;2377;51.734;8.950;2023-01-15T08:54:51;5.50;1.00
4727;DHT22;2377;51.734;8.950;2023-01-15T08:57:18;5.50;1.00
4727;DHT22;2377;51.734;8.950;2023-01-15T08:59:46;5.50;1.00
4727;DHT22;2377;51.734;8.950;2023-01-15T09:02:14;5.50;1.00
4727;DHT22;2377;51.734;8.950;2023-01-15T09:04:42;5.50;1.00
4727;DHT22;2377;51.734;8.950;2023-01-15T09:07:09;5.50;1.00
4727;DHT22;2377;51.734;8.950;2023-01-15T09:09:37;5.50;1.00
4727;DHT22;2377;51.734;8.950;2023-01-15T09:12:04;5.50;1.00
4727;DHT22;2377;51.734;8.950;2023-01-15T09:14:31;5.50;1.00
4727;DHT22;2377;51.734;8.950;2023-01-15T09:16:58;5.50;1.00
4727;DHT22;2377;51.734;8.950;2023-01-15T09:19:26;5.50;1.00
4727;DHT22;2377;51.734;8.950;2023-01-15T09:21:53;5.50;1.00
4727;DHT22;2377;51.734;8.950;2023-01-15T09:24:19;5.50;1.00
4727;DHT22;2377;51.734;8.950;2023-01-15T09:26:47;5.50;1.00
4727;DHT22;2377;51.734;8.950;2023-01-15T09:29:17;5.60;1.00
4727;DHT22;2377;51.734;8.950;2023-01-15T09:31:45;5.60;1.00
4727;DHT22;2377;51.734;8.950;2023-01-15T09:34:12;5.70;1.00
4727;DHT22;2377;51.734;8.950;2023-01-15T09:36:40;5.70;1.00
4727;DHT22;2377;51.734;8.950;2023-01-15T09:39:07;5.70;1.00
4727;DHT22;2377;51.734;8.950;2023-01-15T09:41:52;5.80;1.00
4727;DHT22;2377;51.734;8.950;2023-01-15T09:45:04;5.80;1.00
4727;DHT22;2377;51.734;8.950;2023-01-15T09:47:44;5.80;1.00
4727;DHT22;2377;51.734;8.950;2023-01-15T09:50:37;5.80;1.00
4727;DHT22;2377;51.734;8.950;2023-01-15T09:53:31;5.80;1.00
4727;DHT22;2377;51.734;8.950;2023-01-15T09:56:15;5.80;1.00
4727;DHT22;2377;51.734;8.950;2023-01-15T09:58:46;6.00;1.00
4727;DHT22;2377;51.734;8.950;2023-01-15T10:01:16;6.00;1.00
4727;DHT22;2377;51.734;8.950;2023-01-15T10:03:48;6.00;1.00
4727;DHT22;2377;51.734;8.950;2023-01-15T10:06:23;5.90;1.00
4727;DHT22;2377;51.734;8.950;2023-01-15T10:09:01;6.00;1.00
4727;DHT22;2377;51.734;8.950;2023-01-15T10:11:38;6.00;1.00
4727;DHT22;2377;51.734;8.950;2023-01-15T10:14:33;6.10;1.00
4727;DHT22;2377;51.734;8.950;2023-01-15T10:17:21;6.10;1.00
4727;DHT22;2377;51.734;8.950;2023-01-15T10:19:53;6.10;1.00
4727;DHT22;2377;51.734;8.950;2023-01-15T10:22:32;6.10;1.00
4727;DHT22;2377;51.734;8.950;2023-01-15T10:25:15;6.10;1.00
4727;DHT22;2377;51.734;8.950;2023-01-15T10:27:46;6.10;1.00
4727;DHT22;2377;51.734;8.950;2023-01-15T10:30:23;6.10;1.00
4727;DHT22;2377;51.734;8.950;2023-01-15T10:33:04;6.00;1.00
4727;DHT22;2377;51.734;8.950;2023-01-15T10:35:52;6.10;1.00
4727;DHT22;2377;51.734;8.950;2023-01-15T10:38:26;6.00;1.00
4727;DHT22;2377;51.734;8.950;2023-01-15T10:41:08;6.00;1.00
4727;DHT22;2377;51.734;8.950;2023-01-15T10:43:51;6.30;1.00
4727;DHT22;2377;51.734;8.950;2023-01-15T10:46:24;6.80;1.00
4727;DHT22;2377;51.734;8.950;2023-01-15T10:49:01;7.00;1.00
4727;DHT22;2377;51.734;8.950;2023-01-15T10:51:36;7.40;1.00
4727;DHT22;2377;51.734;8.950;2023-01-15T10:54:15;7.90;99.90
4727;DHT22;2377;51.734;8.950;2023-01-15T10:56:54;8.30;99.90
4727;DHT22;2377;51.734;8.950;2023-01-15T10:59:35;8.30;99.90
4727;DHT22;2377;51.734;8.950;2023-01-15T11:02:23;7.90;99.90
4727;DHT22;2377;51.734;8.950;2023-01-15T11:04:54;7.40;99.90
4727;DHT22;2377;51.734;8.950;2023-01-15T11:07:24;7.10;1.00
4727;DHT22;2377;51.734;8.950;2023-01-15T11:10:02;6.80;99.90
4727;DHT22;2377;51.734;8.950;2023-01-15T11:12:33;6.80;1.00
4727;DHT22;2377;51.734;8.950;2023-01-15T11:15:22;6.60;1.00
4727;DHT22;2377;51.734;8.950;2023-01-15T11:18:12;6.50;1.00
4727;DHT22;2377;51.734;8.950;2023-01-15T11:21:01;6.50;1.00
4727;DHT22;2377;51.734;8.950;2023-01-15T11:23:34;6.50;1.00
4727;DHT22;2377;51.734;8.950;2023-01-15T11:26:02;6.60;1.00
4727;DHT22;2377;51.734;8.950;2023-01-15T11:28:34;6.70;1.00
4727;DHT22;2377;51.734;8.950;2023-01-15T11:31:04;6.80;1.00
4727;DHT22;2377;51.734;8.950;2023-01-15T11:33:32;6.80;1.00
4727;DHT22;2377;51.734;8.950;2023-01-15T11:36:02;6.60;1.00
4727;DHT22;2377;51.734;8.950;2023-01-15T11:38:42;6.60;1.00
4727;DHT22;2377;51.734;8.950;2023-01-15T11:41:20;6.60;1.00
4727;DHT22;2377;51.734;8.950;2023-01-15T11:43:57;6.60;1.00
4727;DHT22;2377;51.734;8.950;2023-01-15T11:46:45;6.60;1.00
4727;DHT22;2377;51.734;8.950;2023-01-15T11:49:29;6.60;1.00
4727;DHT22;2377;51.734;8.950;2023-01-15T11:52:16;6.60;1.00
4727;DHT22;2377;51.734;8.950;2023-01-15T11:54:48;6.60;1.00
4727;DHT22;2377;51.734;8.950;2023-01-15T11:57:26;6.60;1.00
4727;DHT22;2377;51.734;8.950;2023-01-15T11:59:57;6.70;1.00
4727;DHT22;2377;51.734;8.950;2023-01-15T12:02:31;6.70;1.00
4727;DHT22;2377;51.734;8.950;2023-01-15T12:05:04;6.80;1.00
4727;DHT22;2377;51.734;8.950;2023-01-15T12:07:37;6.90;1.00
4727;DHT22;2377;51.734;8.950;2023-01-15T12:10:15;6.80;1.00
4727;DHT22;2377;51.734;8.950;2023-01-15T12:13:13;6.90;1.00
4727;DHT22;2377;51.734;8.950;2023-01-15T12:15:51;6.80;1.00
4727;DHT22;2377;51.734;8.950;2023-01-15T12:18:50;6.80;1.00
4727;DHT22;2377;51.734;8.950;2023-01-15T12:21:55;6.60;1.00
4727;DHT22;2377;51.734;8.950;2023-01-15T12:27:55;6.50;1.00
4727;DHT22;2377;51.734;8.950;2023-01-15T12:30:31;6.50;1.00
4727;DHT22;2377;51.734;8.950;2023-01-15T12:33:14;6.40;1.00
4727;DHT22;2377;51.734;8.950;2023-01-15T12:35:52;6.50;1.00
4727;DHT22;2377;51.734;8.950;2023-01-15T12:38:33;6.30;1.00
4727;DHT22;2377;51.734;8.950;2023-01-15T12:41:15;6.30;1.00
4727;DHT22;2377;51.734;8.950;2023-01-15T12:43:50;6.40;1.00
4727;DHT22;2377;51.734;8.950;2023-01-15T12:46:41;6.30;1.00
4727;DHT22;2377;51.734;8.950;2023-01-15T12:49:28;6.30;1.00
4727;DHT22;2377;51.734;8.950;2023-01-15T12:52:04;6.30;1.00
4727;DHT22;2377;51.734;8.950;2023-01-15T12:54:40;6.30;1.00
4727;DHT22;2377;51.734;8.950;2023-01-15T12:57:16;6.40;1.00
4727;DHT22;2377;51.734;8.950;2023-01-15T12:59:54;6.50;1.00
4727;DHT22;2377;51.734;8.950;2023-01-15T13:02:35;6.50;1.00
4727;DHT22;2377;51.734;8.950;2023-01-15T13:05:17;6.50;1.00
4727;DHT22;2377;51.734;8.950;2023-01-15T13:07:50;6.50;1.00
4727;DHT22;2377;51.734;8.950;2023-01-15T13:10:24;6.50;1.00
4727;DHT22;2377;51.734;8.950;2023-01-15T13:12:53;6.50;1.00
4727;DHT22;2377;51.734;8.950;2023-01-15T13:15:28;6.50;1.00
4727;DHT22;2377;51.734;8.950;2023-01-15T13:18:03;6.60;1.00
4727;DHT22;2377;51.734;8.950;2023-01-15T13:20:46;6.60;1.00
4727;DHT22;2377;51.734;8.950;2023-01-15T13:23:29;6.60;1.00
4727;DHT22;2377;51.734;8.950;2023-01-15T13:26:19;6.50;1.00
4727;DHT22;2377;51.734;8.950;2023-01-15T13:29:06;6.50;1.00
4727;DHT22;2377;51.734;8.950;2023-01-15T13:31:49;6.50;1.00
4727;DHT22;2377;51.734;8.950;2023-01-15T13:34:30;6.40;1.00
4727;DHT22;2377;51.734;8.950;2023-01-15T13:37:12;6.40;1.00
4727;DHT22;2377;51.734;8.950;2023-01-15T13:39:47;6.40;1.00
4727;DHT22;2377;51.734;8.950;2023-01-15T13:42:18;6.50;1.00
4727;DHT22;2377;51.734;8.950;2023-01-15T13:45:06;6.50;1.00
4727;DHT22;2377;51.734;8.950;2023-01-15T13:47:54;6.50;1.00
4727;DHT22;2377;51.734;8.950;2023-01-15T13:50:28;6.50;1.00
4727;DHT22;2377;51.734;8.950;2023-01-15T13:53:04;6.40;1.00
4727;DHT22;2377;51.734;8.950;2023-01-15T13:55:42;6.50;1.00
4727;DHT22;2377;51.734;8.950;2023-01-15T13:58:20;6.40;1.00
4727;DHT22;2377;51.734;8.950;2023-01-15T14:01:01;6.50;1.00
4727;DHT22;2377;51.734;8.950;2023-01-15T14:03:59;6.50;1.00
4727;DHT22;2377;51.734;8.950;2023-01-15T14:06:40;6.50;1.00
4727;DHT22;2377;51.734;8.950;2023-01-15T14:09:25;6.50;1.00
4727;DHT22;2377;51.734;8.950;2023-01-15T14:12:05;6.40;1.00
4727;DHT22;2377;51.734;8.950;2023-01-15T14:15:00;6.50;1.00
4727;DHT22;2377;51.734;8.950;2023-01-15T14:18:03;6.40;1.00
4727;DHT22;2377;51.734;8.950;2023-01-15T14:20:56;6.40;1.00
4727;DHT22;2377;51.734;8.950;2023-01-15T14:23:52;6.50;1.00
4727;DHT22;2377;51.734;8.950;2023-01-15T14:26:45;6.50;1.00
4727;DHT22;2377;51.734;8.950;2023-01-15T14:29:49;6.50;1.00
4727;DHT22;2377;51.734;8.950;2023-01-15T14:32:41;6.40;1.00
4727;DHT22;2377;51.734;8.950;2023-01-15T14:35:21;6.30;1.00
4727;DHT22;2377;51.734;8.950;2023-01-15T14:37:52;6.30;1.00
4727;DHT22;2377;51.734;8.950;2023-01-15T14:40:24;6.30;1.00
4727;DHT22;2377;51.734;8.950;2023-01-15T14:43:00;6.40;1.00
4727;DHT22;2377;51.734;8.950;2023-01-15T14:45:32;6.30;1.00
4727;DHT22;2377;51.734;8.950;2023-01-15T14:48:04;6.30;1.00
4727;DHT22;2377;51.734;8.950;2023-01-15T14:50:41;6.30;1.00
4727;DHT22;2377;51.734;8.950;2023-01-15T14:53:18;6.30;1.00
4727;DHT22;2377;51.734;8.950;2023-01-15T14:56:09;6.30;1.00
4727;DHT22;2377;51.734;8.950;2023-01-15T14:58:51;6.30;1.00
4727;DHT22;2377;51.734;8.950;2023-01-15T15:01:29;6.30;1.00
4727;DHT22;2377;51.734;8.950;2023-01-15T15:04:08;6.20;1.00
4727;DHT22;2377;51.734;8.950;2023-01-15T15:06:50;6.30;1.00
4727;DHT22;2377;51.734;8.950;2023-01-15T15:09:28;6.30;1.00
4727;DHT22;2377;51.734;8.950;2023-01-15T15:12:13;6.20;1.00
4727;DHT22;2377;51.734;8.950;2023-01-15T15:14:52;6.20;1.00
4727;DHT22;2377;51.734;8.950;2023-01-15T15:17:33;6.20;1.00
4727;DHT22;2377;51.734;8.950;2023-01-15T15:20:17;6.10;1.00
4727;DHT22;2377;51.734;8.950;2023-01-15T15:22:53;6.10;1.00
4727;DHT22;2377;51.734;8.950;2023-01-15T15:25:23;6.00;1.00
4727;DHT22;2377;51.734;8.950;2023-01-15T15:28:03;6.00;1.00
4727;DHT22;2377;51.734;8.950;2023-01-15T15:30:35;6.10;1.00
4727;DHT22;2377;51.734;8.950;2023-01-15T15:33:14;6.00;1.00
4727;DHT22;2377;51.734;8.950;2023-01-15T15:35:45;6.10;1.00
4727;DHT22;2377;51.734;8.950;2023-01-15T15:38:17;6.00;1.00
4727;DHT22;2377;51.734;8.950;2023-01-15T15:40:49;6.10;1.00
4727;DHT22;2377;51.734;8.950;2023-01-15T15:43:23;6.10;1.00
4727;DHT22;2377;51.734;8.950;2023-01-15T15:46:26;6.00;1.00
4727;DHT22;2377;51.734;8.950;2023-01-15T15:49:12;6.10;1.00
4727;DHT22;2377;51.734;8.950;2023-01-15T15:51:44;6.00;1.00
4727;DHT22;2377;51.734;8.950;2023-01-15T15:54:15;6.00;1.00
4727;DHT22;2377;51.734;8.950;2023-01-15T15:56:47;5.90;1.00
4727;DHT22;2377;51.734;8.950;2023-01-15T15:59:24;6.00;1.00
4727;DHT22;2377;51.734;8.950;2023-01-15T16:01:57;6.00;1.00
4727;DHT22;2377;51.734;8.950;2023-01-15T16:04:26;6.00;1.00
4727;DHT22;2377;51.734;8.950;2023-01-15T16:06:54;6.00;1.00
4727;DHT22;2377;51.734;8.950;2023-01-15T16:09:22;6.00;1.00
4727;DHT22;2377;51.734;8.950;2023-01-15T16:11:50;6.00;1.00
4727;DHT22;2377;51.734;8.950;2023-01-15T16:14:20;6.00;1.00
4727;DHT22;2377;51.734;8.950;2023-01-15T16:16:49;6.00;1.00
4727;DHT22;2377;51.734;8.950;2023-01-15T16:19:20;6.00;1.00
4727;DHT22;2377;51.734;8.950;2023-01-15T16:21:50;6.00;1.00
4727;DHT22;2377;51.734;8.950;2023-01-15T16:24:24;6.10;1.00
4727;DHT22;2377;51.734;8.950;2023-01-15T16:26:59;6.00;1.00
4727;DHT22;2377;51.734;8.950;2023-01-15T16:29:32;5.90;1.00
4727;DHT22;2377;51.734;8.950;2023-01-15T16:32:07;5.90;1.00
4727;DHT22;2377;51.734;8.950;2023-01-15T16:34:38;5.90;1.00
4727;DHT22;2377;51.734;8.950;2023-01-15T16:37:22;6.00;1.00
4727;DHT22;2377;51.734;8.950;2023-01-15T16:39:52;5.90;1.00
4727;DHT22;2377;51.734;8.950;2023-01-15T16:42:25;6.00;1.00
4727;DHT22;2377;51.734;8.950;2023-01-15T16:44:57;5.90;1.00
4727;DHT22;2377;51.734;8.950;2023-01-15T16:47:28;5.90;1.00
4727;DHT22;2377;51.734;8.950;2023-01-15T16:50:26;5.90;1.00
4727;DHT22;2377;51.734;8.950;2023-01-15T16:52:55;5.80;1.00
4727;DHT22;2377;51.734;8.950;2023-01-15T16:55:35;5.80;1.00
4727;DHT22;2377;51.734;8.950;2023-01-15T16:58:16;5.80;1.00
4727;DHT22;2377;51.734;8.950;2023-01-15T17:00:47;5.80;1.00
4727;DHT22;2377;51.734;8.950;2023-01-15T17:03:19;5.80;1.00
4727;DHT22;2377;51.734;8.950;2023-01-15T17:05:52;5.80;1.00
4727;DHT22;2377;51.734;8.950;2023-01-15T17:08:25;5.80;1.00
4727;DHT22;2377;51.734;8.950;2023-01-15T17:10:59;5.80;1.00
4727;DHT22;2377;51.734;8.950;2023-01-15T17:13:32;5.80;1.00
4727;DHT22;2377;51.734;8.950;2023-01-15T17:16:14;5.80;1.00
4727;DHT22;2377;51.734;8.950;2023-01-15T17:18:42;5.80;1.00
4727;DHT22;2377;51.734;8.950;2023-01-15T17:21:14;5.80;1.00
4727;DHT22;2377;51.734;8.950;2023-01-15T17:23:44;5.90;1.00